createdAt,value
2022-09-13T00:00:05.026Z,2.65
2022-09-13T00:02:32.690Z,2.15
2022-09-13T00:05:00.177Z,2.55
2022-09-13T00:07:27.561Z,2.35
2022-09-13T00:09:54.905Z,2.30
2022-09-13T00:12:23.647Z,2.42
2022-09-13T00:14:51.225Z,2.40
2022-09-13T00:17:18.632Z,2.60
2022-09-13T00:19:46.007Z,2.40
2022-09-13T00:22:13.367Z,2.70
2022-09-13T00:24:41.367Z,2.17
2022-09-13T00:27:08.726Z,2.65
2022-09-13T00:29:37.456Z,2.17
2022-09-13T00:32:04.815Z,2.33
2022-09-13T00:34:32.338Z,2.63
2022-09-13T00:36:59.684Z,2.42
2022-09-13T00:39:27.011Z,2.30
2022-09-13T00:41:54.410Z,1.92
2022-09-13T00:44:40.526Z,2.55
2022-09-13T00:47:09.248Z,2.40
2022-09-13T00:49:37.902Z,2.15
2022-09-13T00:52:07.861Z,2.60
2022-09-13T00:54:37.194Z,2.47
2022-09-13T00:57:05.880Z,2.38
2022-09-13T00:59:35.154Z,2.58
2022-09-13T01:02:04.566Z,2.58
2022-09-13T01:04:35.512Z,2.63
2022-09-13T01:09:31.486Z,3.38
2022-09-13T01:12:04.261Z,2.35
2022-09-13T01:14:31.835Z,2.42
2022-09-13T01:16:59.234Z,2.45
2022-09-13T01:19:26.598Z,2.58
2022-09-13T01:22:16.177Z,2.55
2022-09-13T01:25:01.279Z,2.20
2022-09-13T01:27:36.213Z,2.88
2022-09-13T01:30:07.392Z,2.33
2022-09-13T01:32:38.625Z,2.60
2022-09-13T01:35:16.992Z,2.60
2022-09-13T01:37:51.588Z,2.70
2022-09-13T01:40:25.560Z,2.55
2022-09-13T01:43:03.498Z,2.97
2022-09-13T01:45:38.194Z,2.33
2022-09-13T01:48:11.075Z,2.67
2022-09-13T01:50:41.824Z,2.75
2022-09-13T01:53:15.891Z,2.55
2022-09-13T01:55:45.188Z,2.58
2022-09-13T01:58:18.496Z,2.60
2022-09-13T02:00:48.999Z,2.63
2022-09-13T02:03:23.981Z,2.90
2022-09-13T02:05:53.667Z,2.53
2022-09-13T02:08:22.961Z,2.63
2022-09-13T02:10:52.014Z,2.78
2022-09-13T02:13:22.173Z,3.10
2022-09-13T02:15:52.718Z,2.88
2022-09-13T02:18:22.668Z,2.90
2022-09-13T02:20:51.420Z,2.70
2022-09-13T02:23:22.694Z,2.63
2022-09-13T02:25:50.894Z,2.45
2022-09-13T02:28:22.071Z,2.80
2022-09-13T02:30:53.194Z,2.75
2022-09-13T02:33:23.247Z,3.40
2022-09-13T02:35:53.089Z,3.00
2022-09-13T02:38:23.555Z,2.70
2022-09-13T02:40:56.502Z,3.10
2022-09-13T02:43:25.993Z,2.90
2022-09-13T02:46:11.585Z,2.95
2022-09-13T02:48:44.601Z,3.40
2022-09-13T02:51:17.670Z,2.90
2022-09-13T02:53:51.499Z,3.10
2022-09-13T02:56:24.942Z,3.15
2022-09-13T02:58:55.942Z,3.00
2022-09-13T03:01:24.990Z,2.47
2022-09-13T03:03:53.397Z,2.95
2022-09-13T03:06:24.459Z,2.72
2022-09-13T03:08:51.914Z,2.78
2022-09-13T03:11:25.894Z,2.80
2022-09-13T03:14:03.916Z,3.25
2022-09-13T03:16:38.146Z,2.90
2022-09-13T03:19:13.423Z,2.55
2022-09-13T03:21:52.939Z,3.85
2022-09-13T03:24:24.202Z,2.92
2022-09-13T03:27:02.237Z,3.17
2022-09-13T03:29:33.551Z,2.70
2022-09-13T03:32:08.107Z,3.30
2022-09-13T03:34:41.420Z,2.75
2022-09-13T03:37:11.604Z,2.75
2022-09-13T03:39:42.013Z,3.17
2022-09-13T03:42:12.985Z,3.58
2022-09-13T03:44:42.206Z,3.38
2022-09-13T03:47:11.590Z,4.97
2022-09-13T03:49:39.983Z,5.40
2022-09-13T03:52:07.819Z,5.20
2022-09-13T03:54:37.787Z,5.50
2022-09-13T03:57:09.683Z,6.03
2022-09-13T03:59:38.640Z,4.70
2022-09-13T04:02:07.506Z,4.80
2022-09-13T04:04:36.318Z,5.75
2022-09-13T04:07:04.239Z,4.25
2022-09-13T04:09:31.868Z,4.25
2022-09-13T04:11:59.226Z,4.60
2022-09-13T04:14:28.162Z,4.15
2022-09-13T04:16:55.952Z,3.97
2022-09-13T04:19:23.766Z,4.13
2022-09-13T04:21:53.047Z,3.88
2022-09-13T04:24:20.585Z,4.18
2022-09-13T04:26:50.423Z,3.70
2022-09-13T04:29:18.212Z,3.95
2022-09-13T04:31:45.588Z,3.70
2022-09-13T04:34:13.243Z,4.35
2022-09-13T04:36:40.639Z,4.00
2022-09-13T04:39:09.336Z,3.47
2022-09-13T04:41:36.752Z,3.95
2022-09-13T04:44:04.404Z,3.70
2022-09-13T04:46:31.779Z,4.03
2022-09-13T04:48:59.231Z,3.40
2022-09-13T04:51:26.603Z,3.42
2022-09-13T04:53:54.300Z,3.70
2022-09-13T04:56:23.595Z,3.88
2022-09-13T04:58:51.543Z,4.20
2022-09-13T05:01:19.066Z,4.00
2022-09-13T05:03:46.476Z,3.78
2022-09-13T05:06:15.131Z,4.30
2022-09-13T05:08:42.561Z,3.80
2022-09-13T05:11:09.954Z,3.67
2022-09-13T05:13:39.459Z,3.55
2022-09-13T05:16:07.787Z,3.50
2022-09-13T05:18:36.437Z,3.67
2022-09-13T05:21:05.330Z,3.50
2022-09-13T05:23:33.049Z,3.33
2022-09-13T05:26:01.805Z,3.45
2022-09-13T05:28:29.765Z,3.42
2022-09-13T05:30:59.394Z,3.80
2022-09-13T05:33:27.251Z,3.40
2022-09-13T05:35:54.983Z,3.53
2022-09-13T05:38:22.717Z,3.53
2022-09-13T05:40:56.261Z,3.45
2022-09-13T05:43:25.205Z,3.72
2022-09-13T05:46:00.848Z,3.65
2022-09-13T05:48:29.576Z,3.35
2022-09-13T05:50:58.492Z,3.78
2022-09-13T05:53:26.247Z,3.38
2022-09-13T05:55:53.595Z,3.67
2022-09-13T05:58:20.972Z,3.50
2022-09-13T06:00:53.347Z,3.83
2022-09-13T06:03:20.744Z,3.35
2022-09-13T06:05:49.486Z,3.47
2022-09-13T06:08:17.029Z,4.80
2022-09-13T06:10:44.424Z,4.65
2022-09-13T06:13:11.813Z,4.47
2022-09-13T06:15:43.233Z,4.38
2022-09-13T06:18:10.810Z,4.95
2022-09-13T06:20:38.164Z,4.70
2022-09-13T06:23:06.914Z,4.40
2022-09-13T06:25:34.304Z,4.47
2022-09-13T06:28:01.675Z,4.60
2022-09-13T06:30:28.996Z,5.32
2022-09-13T06:32:57.019Z,5.07
2022-09-13T06:35:24.418Z,5.25
2022-09-13T06:37:51.830Z,6.25
2022-09-13T06:40:25.203Z,5.10
2022-09-13T06:42:52.817Z,5.40
2022-09-13T06:45:20.324Z,5.32
2022-09-13T06:47:47.692Z,5.43
2022-09-13T06:50:15.139Z,4.85
2022-09-13T06:52:42.487Z,5.15
2022-09-13T06:55:12.676Z,6.15
2022-09-13T06:57:41.623Z,5.53
2022-09-13T07:00:09.830Z,5.88
2022-09-13T07:02:37.239Z,5.82
2022-09-13T07:05:04.768Z,5.75
2022-09-13T07:07:32.172Z,5.20
2022-09-13T07:10:00.933Z,5.90
2022-09-13T07:12:28.327Z,5.45
2022-09-13T07:14:57.064Z,4.90
2022-09-13T07:17:26.624Z,5.22
2022-09-13T07:19:55.807Z,5.15
2022-09-13T07:22:26.982Z,4.60
2022-09-13T07:24:54.428Z,4.53
2022-09-13T07:27:21.815Z,5.40
2022-09-13T07:29:49.217Z,4.95
2022-09-13T07:32:17.961Z,4.80
2022-09-13T07:34:45.285Z,4.90
2022-09-13T07:37:12.637Z,4.88
2022-09-13T07:39:40.110Z,4.90
2022-09-13T07:42:07.568Z,4.63
2022-09-13T07:44:34.950Z,5.20
2022-09-13T07:47:02.294Z,4.60
2022-09-13T07:49:31.046Z,4.85
2022-09-13T07:51:58.383Z,4.72
2022-09-13T07:54:25.915Z,5.00
2022-09-13T07:56:53.426Z,5.25
2022-09-13T07:59:20.848Z,4.95
2022-09-13T08:01:49.032Z,4.50
2022-09-13T08:04:18.403Z,4.90
2022-09-13T08:06:47.405Z,4.72
2022-09-13T08:09:15.449Z,4.70
2022-09-13T08:11:43.835Z,4.88
2022-09-13T08:14:12.304Z,4.85
2022-09-13T08:16:40.324Z,5.13
2022-09-13T08:19:08.631Z,5.45
2022-09-13T08:21:36.896Z,4.38
2022-09-13T08:24:06.180Z,5.10
2022-09-13T08:26:34.420Z,4.70
2022-09-13T08:29:03.307Z,4.63
2022-09-13T08:31:31.020Z,5.03
2022-09-13T08:33:58.707Z,4.68
2022-09-13T08:36:26.698Z,4.38
2022-09-13T08:38:55.804Z,4.50
2022-09-13T08:41:34.694Z,5.13
2022-09-13T08:44:04.311Z,4.93
2022-09-13T08:46:34.246Z,5.00
2022-09-13T08:49:04.423Z,5.15
2022-09-13T08:51:33.172Z,4.63
2022-09-13T08:54:00.697Z,4.75
2022-09-13T08:56:33.439Z,5.38
2022-09-13T08:59:04.901Z,5.43
2022-09-13T09:01:39.138Z,4.85
2022-09-13T09:04:13.234Z,5.32
2022-09-13T09:06:40.996Z,5.03
2022-09-13T09:09:09.675Z,5.10
2022-09-13T09:11:39.095Z,5.10
2022-09-13T09:14:08.278Z,4.88
2022-09-13T09:16:38.792Z,4.72
2022-09-13T09:21:33.898Z,5.07
2022-09-13T09:24:03.639Z,5.07
2022-09-13T09:26:31.655Z,4.88
2022-09-13T09:29:01.371Z,5.47
2022-09-13T09:31:33.482Z,4.88
2022-09-13T09:34:06.820Z,5.10
2022-09-13T09:36:38.653Z,5.10
2022-09-13T09:39:06.602Z,5.25
2022-09-13T09:41:35.155Z,5.10
2022-09-13T09:44:07.221Z,5.10
2022-09-13T09:46:36.732Z,4.63
2022-09-13T09:49:27.561Z,5.47
2022-09-13T09:51:56.408Z,5.47
2022-09-13T09:54:25.265Z,4.53
2022-09-13T09:56:53.813Z,4.50
2022-09-13T09:59:28.544Z,5.07
2022-09-13T10:01:58.014Z,4.63
2022-09-13T10:04:26.009Z,4.20
2022-09-13T10:07:12.586Z,4.65
2022-09-13T10:09:56.103Z,4.70
2022-09-13T10:12:27.590Z,5.07
2022-09-13T10:15:03.904Z,4.82
2022-09-13T10:17:31.299Z,4.30
2022-09-13T10:20:01.209Z,4.53
2022-09-13T10:22:29.076Z,5.05
2022-09-13T10:24:57.043Z,4.80
2022-09-13T10:27:26.978Z,4.95
2022-09-13T10:29:59.630Z,4.07
2022-09-13T10:32:27.908Z,4.15
2022-09-13T10:34:56.383Z,4.82
2022-09-13T10:37:30.688Z,4.65
2022-09-13T10:40:01.773Z,4.65
2022-09-13T10:42:31.031Z,4.68
2022-09-13T10:45:00.453Z,4.90
2022-09-13T10:47:31.167Z,5.00
2022-09-13T10:49:59.354Z,4.47
2022-09-13T10:52:27.950Z,4.60
2022-09-13T10:54:55.516Z,4.30
2022-09-13T10:57:34.397Z,4.10
2022-09-13T11:00:03.486Z,4.55
2022-09-13T11:02:38.404Z,4.70
2022-09-13T11:05:12.739Z,4.05
2022-09-13T11:07:55.047Z,4.18
2022-09-13T11:10:27.842Z,4.40
2022-09-13T11:12:59.155Z,4.47
2022-09-13T11:15:32.884Z,4.35
2022-09-13T11:18:13.992Z,5.15
2022-09-13T11:20:45.171Z,4.25
2022-09-13T11:23:24.378Z,5.20
2022-09-13T11:26:04.909Z,4.97
2022-09-13T11:28:37.108Z,5.78
2022-09-13T11:31:09.074Z,5.63
2022-09-13T11:33:41.675Z,5.68
2022-09-13T11:36:17.300Z,6.40
2022-09-13T11:38:49.718Z,5.95
2022-09-13T11:41:22.846Z,6.10
2022-09-13T11:44:03.800Z,5.93
2022-09-13T11:46:36.703Z,6.80
2022-09-13T11:49:14.414Z,6.82
2022-09-13T11:51:48.846Z,8.00
2022-09-13T11:54:24.445Z,7.38
2022-09-13T11:56:55.460Z,7.18
2022-09-13T11:59:29.542Z,6.88
2022-09-13T12:01:59.970Z,7.15
2022-09-13T12:07:01.119Z,6.03
2022-09-13T12:09:30.463Z,5.88
2022-09-13T12:12:00.264Z,5.82
2022-09-13T12:14:31.728Z,5.70
2022-09-13T12:17:03.959Z,6.25
2022-09-13T12:19:37.222Z,5.65
2022-09-13T12:22:04.883Z,5.30
2022-09-13T12:24:35.907Z,5.53
2022-09-13T12:27:05.404Z,5.80
2022-09-13T12:29:36.423Z,5.70
2022-09-13T12:32:06.335Z,5.72
2022-09-13T12:34:36.653Z,5.35
2022-09-13T12:37:11.586Z,5.70
2022-09-13T12:39:46.076Z,6.25
2022-09-13T12:42:29.321Z,5.40
2022-09-13T12:45:05.656Z,6.13
2022-09-13T12:47:51.746Z,6.13
2022-09-13T12:50:43.481Z,6.07
2022-09-13T12:53:20.735Z,5.55
2022-09-13T12:55:53.963Z,6.03
2022-09-13T12:58:32.803Z,5.63
2022-09-13T13:01:06.010Z,6.00
2022-09-13T13:03:35.801Z,5.70
2022-09-13T13:06:11.791Z,6.10
2022-09-13T13:08:40.739Z,6.10
2022-09-13T13:11:09.900Z,6.03
2022-09-13T13:13:38.579Z,5.95
2022-09-13T13:16:09.075Z,6.03
2022-09-13T13:21:22.191Z,6.60
2022-09-13T13:24:10.965Z,5.82
2022-09-13T13:26:45.579Z,6.13
2022-09-13T13:29:22.441Z,5.95
2022-09-13T13:32:19.924Z,6.35
2022-09-13T13:34:48.998Z,6.45
2022-09-13T13:37:26.933Z,5.57
2022-09-13T13:40:09.984Z,6.93
2022-09-13T13:42:39.563Z,7.28
2022-09-13T13:45:21.274Z,6.70
2022-09-13T13:47:54.752Z,6.63
2022-09-13T13:50:22.468Z,7.38
2022-09-13T13:52:55.323Z,6.97
2022-09-13T13:55:39.381Z,7.20
2022-09-13T13:58:13.122Z,7.07
2022-09-13T14:00:47.655Z,6.10
2022-09-13T14:03:19.064Z,6.55
2022-09-13T14:05:50.276Z,5.97
2022-09-13T14:08:30.295Z,6.03
2022-09-13T14:11:03.405Z,4.82
2022-09-13T14:13:39.459Z,5.97
2022-09-13T14:16:10.060Z,5.88
2022-09-13T14:18:46.528Z,5.68
2022-09-13T14:21:21.519Z,5.25
2022-09-13T14:23:49.247Z,5.72
2022-09-13T14:26:16.768Z,6.25
2022-09-13T14:28:45.555Z,5.63
2022-09-13T14:31:18.354Z,6.05
2022-09-13T14:33:45.802Z,5.93
2022-09-13T14:36:17.858Z,5.57
2022-09-13T14:38:52.800Z,6.22
2022-09-13T14:41:23.515Z,5.72
2022-09-13T14:43:52.258Z,6.97
2022-09-13T14:46:23.956Z,5.78
2022-09-13T14:48:52.720Z,6.70
2022-09-13T14:51:22.612Z,7.32
2022-09-13T14:53:51.303Z,6.80
2022-09-13T14:56:20.032Z,6.22
2022-09-13T14:58:48.511Z,7.22
2022-09-13T15:01:19.984Z,6.53
2022-09-13T15:03:49.042Z,6.13
2022-09-13T15:06:25.887Z,5.85
2022-09-13T15:08:53.577Z,5.53
2022-09-13T15:11:35.161Z,5.80
2022-09-13T15:14:23.377Z,4.78
2022-09-13T15:16:53.407Z,4.03
2022-09-13T15:21:48.026Z,4.03
2022-09-13T15:24:21.154Z,4.13
2022-09-13T15:26:48.562Z,4.28
2022-09-13T15:29:19.051Z,4.30
2022-09-13T15:31:47.453Z,4.35
2022-09-13T15:34:23.487Z,3.95
2022-09-13T15:37:02.767Z,4.00
2022-09-13T15:39:30.275Z,3.63
2022-09-13T15:41:58.913Z,3.90
2022-09-13T15:44:26.655Z,4.05
2022-09-13T15:46:54.985Z,3.83
2022-09-13T15:49:27.152Z,3.47
2022-09-13T15:51:55.220Z,3.05
2022-09-13T15:54:22.783Z,2.95
2022-09-13T15:56:51.427Z,2.72
2022-09-13T15:59:19.454Z,2.63
2022-09-13T16:01:48.291Z,2.80
2022-09-13T16:04:15.977Z,2.85
2022-09-13T16:06:45.038Z,2.60
2022-09-13T16:09:17.065Z,2.60
2022-09-13T16:11:44.459Z,2.63
2022-09-13T16:14:11.811Z,2.13
2022-09-13T16:16:39.201Z,2.65
2022-09-13T16:19:06.596Z,2.40
2022-09-13T16:21:34.139Z,2.85
2022-09-13T16:24:02.943Z,2.55
2022-09-13T16:26:32.451Z,2.53
2022-09-13T16:28:59.771Z,2.72
2022-09-13T16:31:27.242Z,2.90
2022-09-13T16:33:54.636Z,2.80
2022-09-13T16:36:21.998Z,2.67
2022-09-13T16:38:49.423Z,2.75
2022-09-13T16:41:18.119Z,2.75
2022-09-13T16:43:45.554Z,2.75
2022-09-13T16:46:14.668Z,2.63
2022-09-13T16:48:42.147Z,2.90
2022-09-13T16:51:11.520Z,2.90
2022-09-13T16:53:39.699Z,2.58
2022-09-13T16:56:07.435Z,2.90
2022-09-13T16:58:38.333Z,2.90
2022-09-13T17:01:06.058Z,3.42
2022-09-13T17:03:34.236Z,3.10
2022-09-13T17:06:02.223Z,2.67
2022-09-13T17:08:29.951Z,2.90
2022-09-13T17:10:57.546Z,2.88
2022-09-13T17:13:25.040Z,3.15
2022-09-13T17:15:56.653Z,3.10
2022-09-13T17:18:24.397Z,3.30
2022-09-13T17:20:52.303Z,3.40
2022-09-13T17:23:20.059Z,3.20
2022-09-13T17:25:48.873Z,4.28
2022-09-13T17:28:16.847Z,3.90
2022-09-13T17:30:45.165Z,3.60
2022-09-13T17:33:14.459Z,2.88
2022-09-13T17:35:43.492Z,3.05
2022-09-13T17:38:11.405Z,3.15
2022-09-13T17:40:38.784Z,3.33
2022-09-13T17:43:06.173Z,3.45
2022-09-13T17:45:33.897Z,3.72
2022-09-13T17:48:01.254Z,4.45
2022-09-13T17:50:30.009Z,5.60
2022-09-13T17:52:57.347Z,5.72
2022-09-13T17:55:25.852Z,4.32
2022-09-13T17:57:53.367Z,3.78
2022-09-13T18:00:20.767Z,4.07
2022-09-13T18:02:48.399Z,3.60
2022-09-13T18:05:15.890Z,3.42
2022-09-13T18:07:44.674Z,3.20
2022-09-13T18:10:32.254Z,3.55
2022-09-13T18:12:59.438Z,2.78
2022-09-13T18:15:27.036Z,3.03
2022-09-13T18:17:54.372Z,3.50
2022-09-13T18:20:21.855Z,3.65
2022-09-13T18:22:50.526Z,2.88
2022-09-13T18:25:17.941Z,2.80
2022-09-13T18:27:45.371Z,3.00
2022-09-13T18:30:12.986Z,3.13
2022-09-13T18:32:40.344Z,3.00
2022-09-13T18:35:08.250Z,3.15
2022-09-13T18:37:35.771Z,2.90
2022-09-13T18:40:06.851Z,2.83
2022-09-13T18:42:34.232Z,2.90
2022-09-13T18:45:01.602Z,2.88
2022-09-13T18:47:29.189Z,2.92
2022-09-13T18:49:56.562Z,3.05
2022-09-13T18:52:23.915Z,2.70
2022-09-13T18:54:51.300Z,2.75
2022-09-13T18:57:20.024Z,2.67
2022-09-13T18:59:47.454Z,3.30
2022-09-13T19:02:14.945Z,2.97
2022-09-13T19:04:42.414Z,3.17
2022-09-13T19:07:09.782Z,2.72
2022-09-13T19:09:37.236Z,3.33
2022-09-13T19:12:04.857Z,3.60
2022-09-13T19:14:33.663Z,3.10
2022-09-13T19:17:02.959Z,3.20
2022-09-13T19:19:31.895Z,3.70
2022-09-13T19:21:59.486Z,3.40
2022-09-13T19:24:27.018Z,3.50
2022-09-13T19:26:54.732Z,3.75
2022-09-13T19:29:22.841Z,3.58
2022-09-13T19:31:52.735Z,4.15
2022-09-13T19:34:21.851Z,4.00
2022-09-13T19:36:50.533Z,4.28
2022-09-13T19:39:18.127Z,4.10
2022-09-13T19:41:45.469Z,4.20
2022-09-13T19:44:13.693Z,4.30
2022-09-13T19:46:42.041Z,4.68
2022-09-13T19:49:12.670Z,4.40
2022-09-13T19:51:40.391Z,4.63
2022-09-13T19:54:08.257Z,4.65
2022-09-13T19:56:37.278Z,4.70
2022-09-13T19:59:04.944Z,4.53
2022-09-13T20:01:33.466Z,4.82
2022-09-13T20:04:01.699Z,4.90
2022-09-13T20:06:34.399Z,4.93
2022-09-13T20:09:02.854Z,4.75
2022-09-13T20:11:30.698Z,4.93
2022-09-13T20:13:59.460Z,5.10
2022-09-13T20:16:28.478Z,5.13
2022-09-13T20:18:56.795Z,5.50
2022-09-13T20:21:24.582Z,5.70
2022-09-13T20:23:54.816Z,5.28
2022-09-13T20:26:24.197Z,5.68
2022-09-13T20:28:54.393Z,6.22
2022-09-13T20:31:23.393Z,6.30
2022-09-13T20:33:54.759Z,5.97
2022-09-13T20:36:22.142Z,6.25
2022-09-13T20:38:50.092Z,6.03
2022-09-13T20:41:19.290Z,6.65
2022-09-13T20:43:48.485Z,6.35
2022-09-13T20:46:16.591Z,6.75
2022-09-13T20:48:44.676Z,5.95
2022-09-13T20:51:12.918Z,6.40
2022-09-13T20:53:40.498Z,6.60
2022-09-13T20:56:08.347Z,6.50
2022-09-13T20:58:37.038Z,5.53
2022-09-13T21:01:05.868Z,6.50
2022-09-13T21:03:35.331Z,5.95
2022-09-13T21:06:02.719Z,5.63
2022-09-13T21:08:41.301Z,5.47
2022-09-13T21:11:09.601Z,4.93
2022-09-13T21:13:39.043Z,5.88
2022-09-13T21:16:07.074Z,5.05
2022-09-13T21:18:34.726Z,5.35
2022-09-13T21:21:02.901Z,4.60
2022-09-13T21:23:31.407Z,5.43
2022-09-13T21:26:02.118Z,4.95
2022-09-13T21:30:59.858Z,4.07
2022-09-13T21:33:27.795Z,4.28
2022-09-13T21:35:56.824Z,4.22
2022-09-13T21:38:25.214Z,4.18
2022-09-13T21:40:55.967Z,3.55
2022-09-13T21:45:50.600Z,3.22
2022-09-13T21:48:21.474Z,2.88
2022-09-13T21:50:49.876Z,2.85
2022-09-13T21:53:17.648Z,2.50
2022-09-13T21:55:45.737Z,2.70
2022-09-13T21:58:14.419Z,2.15
2022-09-13T22:00:41.776Z,2.25
2022-09-13T22:03:09.959Z,2.22
2022-09-13T22:05:38.654Z,2.20
2022-09-13T22:08:06.020Z,2.70
2022-09-13T22:10:35.579Z,2.40
2022-09-13T22:13:03.797Z,2.20
2022-09-13T22:15:31.124Z,2.13
2022-09-13T22:17:58.511Z,1.80
2022-09-13T22:20:25.862Z,1.60
2022-09-13T22:22:54.615Z,1.75
2022-09-13T22:25:22.054Z,1.67
2022-09-13T22:27:49.360Z,1.40
2022-09-13T22:30:16.813Z,1.30
2022-09-13T22:32:44.193Z,1.40
2022-09-13T22:35:11.547Z,1.60
2022-09-13T22:37:38.947Z,1.23
2022-09-13T22:40:09.222Z,1.73
2022-09-13T22:42:36.655Z,1.60
2022-09-13T22:45:04.207Z,1.33
2022-09-13T22:47:31.567Z,1.20
2022-09-13T22:49:58.890Z,1.00
2022-09-13T22:52:26.254Z,1.13
2022-09-13T22:54:53.560Z,1.25
2022-09-13T22:57:22.277Z,1.20
2022-09-13T22:59:49.693Z,1.50
2022-09-13T23:02:17.053Z,1.40
2022-09-13T23:04:44.424Z,1.20
2022-09-13T23:07:11.858Z,1.35
2022-09-13T23:09:39.202Z,0.95
2022-09-13T23:12:06.675Z,1.17
2022-09-13T23:14:35.388Z,1.30
2022-09-13T23:17:02.785Z,0.95
2022-09-13T23:19:30.160Z,0.95
2022-09-13T23:21:57.551Z,0.98
2022-09-13T23:24:25.057Z,1.10
2022-09-13T23:26:54.660Z,1.00
2022-09-13T23:29:23.128Z,1.00
2022-09-13T23:31:52.167Z,1.20
2022-09-13T23:34:19.628Z,1.52
2022-09-13T23:36:47.256Z,1.10
2022-09-13T23:39:17.293Z,1.20
2022-09-13T23:41:45.238Z,1.48
2022-09-13T23:44:12.882Z,1.40
2022-09-13T23:46:40.257Z,1.70
2022-09-13T23:49:08.993Z,1.63
2022-09-13T23:51:36.634Z,1.88
2022-09-13T23:54:04.055Z,1.88
2022-09-13T23:56:32.714Z,1.73
2022-09-13T23:59:00.909Z,1.73
